TimeMDT,TemperatureF,Dew PointF,Humidity,Sea Level PressureIn,VisibilityMPH,Wind Direction,Wind SpeedMPH,Gust SpeedMPH,PrecipitationIn,Events,Conditions,WindDirDegrees,DateUTC
12:00 AM,25,25,99,,,NNE,15.0,,,,,20,2012-10-23 06:00:00
12:00 AM,25.2,24.8,99,-9999,-9999.0,NNE,15.0,-,0.04,,Unknown,20,2012-10-23 06:00:00
1:00 AM,24.3,23.9,99,-9999,-9999.0,North,16.1,-,0.04,,Unknown,10,2012-10-23 07:00:00
2:00 AM,24.1,23.7,99,-9999,-9999.0,North,20.7,-,0.04,,Unknown,360,2012-10-23 08:00:00
3:00 AM,24.1,23.7,99,-9999,-9999.0,North,16.1,-,0.05,,Unknown,350,2012-10-23 09:00:00
4:00 AM,24.3,24.1,99,-9999,-9999.0,North,19.6,-,0.07,,Unknown,350,2012-10-23 10:00:00
5:00 AM,23.9,23.7,99,-9999,-9999.0,NNW,18.4,-,0.06,,Unknown,340,2012-10-23 11:00:00
6:00 AM,24,23,96,,,NNW,18.4,,,,,340,2012-10-23 12:00:00
6:00 AM,23.5,23.4,99,-9999,-9999.0,NNW,18.4,-,0.05,,Unknown,340,2012-10-23 12:00:00
7:00 AM,23.2,22.8,99,-9999,-9999.0,NNW,23.0,-,0.03,,Unknown,330,2012-10-23 13:00:00
8:00 AM,23.2,22.6,98,-9999,-9999.0,NNW,25.3,-,0.02,,Unknown,330,2012-10-23 14:00:00
9:00 AM,23.2,22.6,98,-9999,-9999.0,NNW,26.5,-,0.02,,Unknown,330,2012-10-23 15:00:00
10:00 AM,23.2,22.3,96,-9999,-9999.0,NNW,25.3,-,0.03,,Unknown,330,2012-10-23 16:00:00
12:00 PM,24,22,90,,,NNW,21.9,,,,,330,2012-10-23 18:00:00
12:00 PM,24.3,22.3,92,-9999,-9999.0,NNW,21.9,-,N/A,,Unknown,330,2012-10-23 18:00:00
1:00 PM,24.6,22.3,91,-9999,-9999.0,NW,19.6,-,0.02,,Unknown,320,2012-10-23 19:00:00
2:00 PM,24.4,21.7,89,-9999,-9999.0,NW,21.9,-,N/A,,Unknown,320,2012-10-23 20:00:00
3:00 PM,23.9,21.7,91,-9999,-9999.0,NNW,25.3,-,N/A,,Unknown,330,2012-10-23 21:00:00
4:00 PM,23.9,20.3,86,-9999,-9999.0,NNW,21.9,-,N/A,,Unknown,330,2012-10-23 22:00:00
5:00 PM,23.7,19.6,84,-9999,-9999.0,NW,19.6,-,N/A,,Unknown,320,2012-10-23 23:00:00
6:00 PM,23,19,79,,,NNW,16.1,,,,,330,2012-10-24 00:00:00
6:00 PM,23.0,19.2,85,-9999,-9999.0,NNW,16.1,-,N/A,,Unknown,330,2012-10-24 00:00:00
7:00 PM,22.3,20.5,93,-9999,-9999.0,NW,9.2,-,N/A,,Unknown,310,2012-10-24 01:00:00
8:00 PM,23.0,20.1,89,-9999,-9999.0,NW,13.8,-,N/A,,Unknown,320,2012-10-24 02:00:00
9:00 PM,22.1,19.9,91,-9999,-9999.0,NW,9.2,-,N/A,,Unknown,310,2012-10-24 03:00:00
10:00 PM,19.8,17.6,91,-9999,-9999.0,NW,10.4,-,N/A,,Unknown,310,2012-10-24 04:00:00
11:00 PM,19.6,17.6,92,-9999,-9999.0,NW,11.5,-,N/A,,Unknown,310,2012-10-24 05:00:00